sensor_id;sensor_type;location;lat;lon;timestamp;P1;durP1;ratioP1;P2;durP2;ratioP2
74689;SDS011;63221;51.860;-2.188;2023-06-22T00:01:17;5.40;;;3.80;;
74689;SDS011;63221;51.860;-2.188;2023-06-22T00:03:43;4.45;;;3.22;;
74689;SDS011;63221;51.860;-2.188;2023-06-22T00:06:08;7.20;;;3.30;;
74689;SDS011;63221;51.860;-2.188;2023-06-22T00:08:34;6.27;;;3.20;;
74689;SDS011;63221;51.860;-2.188;2023-06-22T00:10:59;7.07;;;3.60;;
74689;SDS011;63221;51.860;-2.188;2023-06-22T00:13:24;6.47;;;3.50;;
74689;SDS011;63221;51.860;-2.188;2023-06-22T00:15:50;4.60;;;3.43;;
74689;SDS011;63221;51.860;-2.188;2023-06-22T00:18:15;4.27;;;3.13;;
74689;SDS011;63221;51.860;-2.188;2023-06-22T00:20:41;5.83;;;2.83;;
74689;SDS011;63221;51.860;-2.188;2023-06-22T00:23:06;5.72;;;3.60;;
74689;SDS011;63221;51.860;-2.188;2023-06-22T00:25:39;5.60;;;3.58;;
74689;SDS011;63221;51.860;-2.188;2023-06-22T00:28:06;7.90;;;3.47;;
74689;SDS011;63221;51.860;-2.188;2023-06-22T00:30:32;5.97;;;3.63;;
74689;SDS011;63221;51.860;-2.188;2023-06-22T00:32:58;7.53;;;4.22;;
74689;SDS011;63221;51.860;-2.188;2023-06-22T00:35:24;6.40;;;3.40;;
74689;SDS011;63221;51.860;-2.188;2023-06-22T00:37:59;6.57;;;3.30;;
74689;SDS011;63221;51.860;-2.188;2023-06-22T00:40:30;7.10;;;4.35;;
74689;SDS011;63221;51.860;-2.188;2023-06-22T00:42:56;7.63;;;3.40;;
74689;SDS011;63221;51.860;-2.188;2023-06-22T00:45:22;9.75;;;3.90;;
74689;SDS011;63221;51.860;-2.188;2023-06-22T00:47:49;4.97;;;3.17;;
74689;SDS011;63221;51.860;-2.188;2023-06-22T00:50:22;6.18;;;3.58;;
74689;SDS011;63221;51.860;-2.188;2023-06-22T00:52:52;5.95;;;3.42;;
74689;SDS011;63221;51.860;-2.188;2023-06-22T00:55:22;6.13;;;3.80;;
74689;SDS011;63221;51.860;-2.188;2023-06-22T00:57:48;7.03;;;3.80;;
74689;SDS011;63221;51.860;-2.188;2023-06-22T01:00:16;6.90;;;3.33;;
74689;SDS011;63221;51.860;-2.188;2023-06-22T01:02:45;6.32;;;4.07;;
74689;SDS011;63221;51.860;-2.188;2023-06-22T01:05:15;6.38;;;3.25;;
74689;SDS011;63221;51.860;-2.188;2023-06-22T01:08:00;5.57;;;3.45;;
74689;SDS011;63221;51.860;-2.188;2023-06-22T01:16:00;5.95;;;3.55;;
74689;SDS011;63221;51.860;-2.188;2023-06-22T01:18:33;7.95;;;4.65;;
74689;SDS011;63221;51.860;-2.188;2023-06-22T01:21:01;7.53;;;4.30;;
74689;SDS011;63221;51.860;-2.188;2023-06-22T01:23:39;6.20;;;4.13;;
74689;SDS011;63221;51.860;-2.188;2023-06-22T01:26:21;10.02;;;4.18;;
74689;SDS011;63221;51.860;-2.188;2023-06-22T01:28:53;6.28;;;4.03;;
74689;SDS011;63221;51.860;-2.188;2023-06-22T01:31:28;7.75;;;3.92;;
74689;SDS011;63221;51.860;-2.188;2023-06-22T01:34:05;7.25;;;5.15;;
74689;SDS011;63221;51.860;-2.188;2023-06-22T01:36:32;7.10;;;4.23;;
74689;SDS011;63221;51.860;-2.188;2023-06-22T01:38:57;7.82;;;4.28;;
74689;SDS011;63221;51.860;-2.188;2023-06-22T01:41:27;8.80;;;4.80;;
74689;SDS011;63221;51.860;-2.188;2023-06-22T01:43:54;7.78;;;3.83;;
74689;SDS011;63221;51.860;-2.188;2023-06-22T01:46:20;7.22;;;4.20;;
74689;SDS011;63221;51.860;-2.188;2023-06-22T01:48:46;9.40;;;4.77;;
74689;SDS011;63221;51.860;-2.188;2023-06-22T01:51:12;10.45;;;4.00;;
74689;SDS011;63221;51.860;-2.188;2023-06-22T01:53:38;9.18;;;4.70;;
74689;SDS011;63221;51.860;-2.188;2023-06-22T01:56:04;9.30;;;4.37;;
74689;SDS011;63221;51.860;-2.188;2023-06-22T01:58:30;7.67;;;4.30;;
74689;SDS011;63221;51.860;-2.188;2023-06-22T02:03:38;9.48;;;4.78;;
74689;SDS011;63221;51.860;-2.188;2023-06-22T02:06:10;7.50;;;4.65;;
74689;SDS011;63221;51.860;-2.188;2023-06-22T02:08:40;8.50;;;4.70;;
74689;SDS011;63221;51.860;-2.188;2023-06-22T02:11:07;8.70;;;5.00;;
74689;SDS011;63221;51.860;-2.188;2023-06-22T02:13:35;7.38;;;4.60;;
74689;SDS011;63221;51.860;-2.188;2023-06-22T02:16:01;7.22;;;5.00;;
74689;SDS011;63221;51.860;-2.188;2023-06-22T02:18:27;8.63;;;4.60;;
74689;SDS011;63221;51.860;-2.188;2023-06-22T02:20:53;6.78;;;4.72;;
74689;SDS011;63221;51.860;-2.188;2023-06-22T02:23:18;7.60;;;4.70;;
74689;SDS011;63221;51.860;-2.188;2023-06-22T02:25:45;7.87;;;5.03;;
74689;SDS011;63221;51.860;-2.188;2023-06-22T02:28:10;9.90;;;4.95;;
74689;SDS011;63221;51.860;-2.188;2023-06-22T02:30:36;10.68;;;4.43;;
74689;SDS011;63221;51.860;-2.188;2023-06-22T02:33:01;7.20;;;4.60;;
74689;SDS011;63221;51.860;-2.188;2023-06-22T02:35:28;7.17;;;4.53;;
74689;SDS011;63221;51.860;-2.188;2023-06-22T02:38:00;7.15;;;4.70;;
74689;SDS011;63221;51.860;-2.188;2023-06-22T02:40:26;9.95;;;5.05;;
74689;SDS011;63221;51.860;-2.188;2023-06-22T02:42:52;9.63;;;5.30;;
74689;SDS011;63221;51.860;-2.188;2023-06-22T02:45:17;9.63;;;5.27;;
74689;SDS011;63221;51.860;-2.188;2023-06-22T02:47:43;8.68;;;5.13;;
74689;SDS011;63221;51.860;-2.188;2023-06-22T02:50:09;8.40;;;4.33;;
74689;SDS011;63221;51.860;-2.188;2023-06-22T02:52:34;10.27;;;5.10;;
74689;SDS011;63221;51.860;-2.188;2023-06-22T02:55:00;9.83;;;4.67;;
74689;SDS011;63221;51.860;-2.188;2023-06-22T02:57:25;7.20;;;4.23;;
74689;SDS011;63221;51.860;-2.188;2023-06-22T02:59:51;6.43;;;4.47;;
74689;SDS011;63221;51.860;-2.188;2023-06-22T03:02:16;7.35;;;3.97;;
74689;SDS011;63221;51.860;-2.188;2023-06-22T03:04:42;7.10;;;4.13;;
74689;SDS011;63221;51.860;-2.188;2023-06-22T03:07:08;6.72;;;3.75;;
74689;SDS011;63221;51.860;-2.188;2023-06-22T03:09:33;9.23;;;4.60;;
74689;SDS011;63221;51.860;-2.188;2023-06-22T03:11:59;7.53;;;4.60;;
74689;SDS011;63221;51.860;-2.188;2023-06-22T03:14:24;8.15;;;3.70;;
74689;SDS011;63221;51.860;-2.188;2023-06-22T03:16:50;6.77;;;4.10;;
74689;SDS011;63221;51.860;-2.188;2023-06-22T03:19:15;7.80;;;3.73;;
74689;SDS011;63221;51.860;-2.188;2023-06-22T03:21:41;10.23;;;4.60;;
74689;SDS011;63221;51.860;-2.188;2023-06-22T03:24:07;7.10;;;4.63;;
74689;SDS011;63221;51.860;-2.188;2023-06-22T03:26:32;8.47;;;4.33;;
74689;SDS011;63221;51.860;-2.188;2023-06-22T03:28:59;8.27;;;3.78;;
74689;SDS011;63221;51.860;-2.188;2023-06-22T03:31:25;5.57;;;3.10;;
74689;SDS011;63221;51.860;-2.188;2023-06-22T03:33:50;7.15;;;3.88;;
74689;SDS011;63221;51.860;-2.188;2023-06-22T03:36:16;9.13;;;3.90;;
74689;SDS011;63221;51.860;-2.188;2023-06-22T03:38:45;9.52;;;4.35;;
74689;SDS011;63221;51.860;-2.188;2023-06-22T03:41:11;8.20;;;4.55;;
74689;SDS011;63221;51.860;-2.188;2023-06-22T03:43:37;8.53;;;5.73;;
74689;SDS011;63221;51.860;-2.188;2023-06-22T03:46:02;7.93;;;4.83;;
74689;SDS011;63221;51.860;-2.188;2023-06-22T03:48:28;11.85;;;5.03;;
74689;SDS011;63221;51.860;-2.188;2023-06-22T03:50:53;7.53;;;4.43;;
74689;SDS011;63221;51.860;-2.188;2023-06-22T03:53:18;12.57;;;5.33;;
74689;SDS011;63221;51.860;-2.188;2023-06-22T03:55:50;7.60;;;4.57;;
74689;SDS011;63221;51.860;-2.188;2023-06-22T03:58:17;8.10;;;4.40;;
74689;SDS011;63221;51.860;-2.188;2023-06-22T04:00:44;7.22;;;4.13;;
74689;SDS011;63221;51.860;-2.188;2023-06-22T04:03:13;7.43;;;4.10;;
74689;SDS011;63221;51.860;-2.188;2023-06-22T04:05:39;8.85;;;4.50;;
74689;SDS011;63221;51.860;-2.188;2023-06-22T04:08:05;8.07;;;4.03;;
74689;SDS011;63221;51.860;-2.188;2023-06-22T04:10:30;8.48;;;4.68;;
74689;SDS011;63221;51.860;-2.188;2023-06-22T04:12:56;7.30;;;4.17;;
74689;SDS011;63221;51.860;-2.188;2023-06-22T04:15:21;10.20;;;4.33;;
74689;SDS011;63221;51.860;-2.188;2023-06-22T04:17:47;9.70;;;4.38;;
74689;SDS011;63221;51.860;-2.188;2023-06-22T04:20:12;9.17;;;4.33;;
74689;SDS011;63221;51.860;-2.188;2023-06-22T04:22:38;9.50;;;4.77;;
74689;SDS011;63221;51.860;-2.188;2023-06-22T04:25:03;10.70;;;4.60;;
74689;SDS011;63221;51.860;-2.188;2023-06-22T04:27:30;7.88;;;4.55;;
74689;SDS011;63221;51.860;-2.188;2023-06-22T04:29:56;9.32;;;5.05;;
74689;SDS011;63221;51.860;-2.188;2023-06-22T04:32:25;6.50;;;4.00;;
74689;SDS011;63221;51.860;-2.188;2023-06-22T04:34:50;8.65;;;4.63;;
74689;SDS011;63221;51.860;-2.188;2023-06-22T04:37:17;7.70;;;4.10;;
74689;SDS011;63221;51.860;-2.188;2023-06-22T04:39:43;7.85;;;4.30;;
74689;SDS011;63221;51.860;-2.188;2023-06-22T04:42:08;9.13;;;5.30;;
74689;SDS011;63221;51.860;-2.188;2023-06-22T04:44:33;7.30;;;5.30;;
74689;SDS011;63221;51.860;-2.188;2023-06-22T04:47:00;11.03;;;4.57;;
74689;SDS011;63221;51.860;-2.188;2023-06-22T04:49:28;8.75;;;4.45;;
74689;SDS011;63221;51.860;-2.188;2023-06-22T04:52:11;8.23;;;4.95;;
74689;SDS011;63221;51.860;-2.188;2023-06-22T04:54:38;8.82;;;5.18;;
74689;SDS011;63221;51.860;-2.188;2023-06-22T04:57:12;8.40;;;5.15;;
74689;SDS011;63221;51.860;-2.188;2023-06-22T04:59:38;9.03;;;4.57;;
74689;SDS011;63221;51.860;-2.188;2023-06-22T05:02:07;9.30;;;5.72;;
74689;SDS011;63221;51.860;-2.188;2023-06-22T05:04:33;9.50;;;5.07;;
74689;SDS011;63221;51.860;-2.188;2023-06-22T05:07:00;10.52;;;4.00;;
74689;SDS011;63221;51.860;-2.188;2023-06-22T05:09:27;11.30;;;5.35;;
74689;SDS011;63221;51.860;-2.188;2023-06-22T05:11:52;7.60;;;5.33;;
74689;SDS011;63221;51.860;-2.188;2023-06-22T05:14:18;12.65;;;4.93;;
74689;SDS011;63221;51.860;-2.188;2023-06-22T05:16:43;9.10;;;4.40;;
74689;SDS011;63221;51.860;-2.188;2023-06-22T05:19:10;9.70;;;5.15;;
74689;SDS011;63221;51.860;-2.188;2023-06-22T05:21:35;11.73;;;5.73;;
74689;SDS011;63221;51.860;-2.188;2023-06-22T05:24:01;11.02;;;5.40;;
74689;SDS011;63221;51.860;-2.188;2023-06-22T05:26:28;8.95;;;6.03;;
74689;SDS011;63221;51.860;-2.188;2023-06-22T05:28:54;11.50;;;5.22;;
74689;SDS011;63221;51.860;-2.188;2023-06-22T05:31:20;10.10;;;5.23;;
74689;SDS011;63221;51.860;-2.188;2023-06-22T05:33:46;10.03;;;5.40;;
74689;SDS011;63221;51.860;-2.188;2023-06-22T05:36:11;9.23;;;4.50;;
74689;SDS011;63221;51.860;-2.188;2023-06-22T05:38:39;8.70;;;5.45;;
74689;SDS011;63221;51.860;-2.188;2023-06-22T05:41:05;9.98;;;5.55;;
74689;SDS011;63221;51.860;-2.188;2023-06-22T05:43:31;10.82;;;5.05;;
74689;SDS011;63221;51.860;-2.188;2023-06-22T05:45:57;10.83;;;6.10;;
74689;SDS011;63221;51.860;-2.188;2023-06-22T05:48:22;8.00;;;4.50;;
74689;SDS011;63221;51.860;-2.188;2023-06-22T05:50:48;6.03;;;3.87;;
74689;SDS011;63221;51.860;-2.188;2023-06-22T05:53:13;9.97;;;5.63;;
74689;SDS011;63221;51.860;-2.188;2023-06-22T05:55:39;10.00;;;5.13;;
74689;SDS011;63221;51.860;-2.188;2023-06-22T05:58:04;8.87;;;4.37;;
74689;SDS011;63221;51.860;-2.188;2023-06-22T06:00:30;9.97;;;4.57;;
74689;SDS011;63221;51.860;-2.188;2023-06-22T06:02:56;9.45;;;4.53;;
74689;SDS011;63221;51.860;-2.188;2023-06-22T06:05:21;7.53;;;4.67;;
74689;SDS011;63221;51.860;-2.188;2023-06-22T06:07:48;6.47;;;3.83;;
74689;SDS011;63221;51.860;-2.188;2023-06-22T06:10:13;8.07;;;4.00;;
74689;SDS011;63221;51.860;-2.188;2023-06-22T06:12:39;5.63;;;3.73;;
74689;SDS011;63221;51.860;-2.188;2023-06-22T06:15:04;9.03;;;4.07;;
74689;SDS011;63221;51.860;-2.188;2023-06-22T06:17:30;5.93;;;3.72;;
74689;SDS011;63221;51.860;-2.188;2023-06-22T06:19:56;7.10;;;4.00;;
74689;SDS011;63221;51.860;-2.188;2023-06-22T06:22:21;6.07;;;3.27;;
74689;SDS011;63221;51.860;-2.188;2023-06-22T06:24:48;4.68;;;2.80;;
74689;SDS011;63221;51.860;-2.188;2023-06-22T06:27:14;7.20;;;3.30;;
74689;SDS011;63221;51.860;-2.188;2023-06-22T06:29:39;4.43;;;2.40;;
74689;SDS011;63221;51.860;-2.188;2023-06-22T06:32:05;5.23;;;3.57;;
74689;SDS011;63221;51.860;-2.188;2023-06-22T06:34:31;4.30;;;2.78;;
74689;SDS011;63221;51.860;-2.188;2023-06-22T06:36:56;4.67;;;2.67;;
74689;SDS011;63221;51.860;-2.188;2023-06-22T06:39:22;7.77;;;2.87;;
74689;SDS011;63221;51.860;-2.188;2023-06-22T06:41:47;6.67;;;3.40;;
74689;SDS011;63221;51.860;-2.188;2023-06-22T06:44:12;5.43;;;3.17;;
74689;SDS011;63221;51.860;-2.188;2023-06-22T06:46:38;6.00;;;3.20;;
74689;SDS011;63221;51.860;-2.188;2023-06-22T06:49:03;5.90;;;2.87;;
74689;SDS011;63221;51.860;-2.188;2023-06-22T06:51:29;5.77;;;3.20;;
74689;SDS011;63221;51.860;-2.188;2023-06-22T06:53:54;4.95;;;3.08;;
74689;SDS011;63221;51.860;-2.188;2023-06-22T06:56:20;7.07;;;3.03;;
74689;SDS011;63221;51.860;-2.188;2023-06-22T06:58:45;7.63;;;3.03;;
74689;SDS011;63221;51.860;-2.188;2023-06-22T07:01:11;7.45;;;4.28;;
74689;SDS011;63221;51.860;-2.188;2023-06-22T07:03:37;5.33;;;2.70;;
74689;SDS011;63221;51.860;-2.188;2023-06-22T07:06:03;5.28;;;2.75;;
74689;SDS011;63221;51.860;-2.188;2023-06-22T07:08:29;6.30;;;3.77;;
74689;SDS011;63221;51.860;-2.188;2023-06-22T07:10:54;6.53;;;3.33;;
74689;SDS011;63221;51.860;-2.188;2023-06-22T07:13:19;6.50;;;3.43;;
74689;SDS011;63221;51.860;-2.188;2023-06-22T07:15:45;5.33;;;3.10;;
74689;SDS011;63221;51.860;-2.188;2023-06-22T07:18:10;5.40;;;4.20;;
74689;SDS011;63221;51.860;-2.188;2023-06-22T07:20:36;6.67;;;3.63;;
74689;SDS011;63221;51.860;-2.188;2023-06-22T07:23:01;7.63;;;3.80;;
74689;SDS011;63221;51.860;-2.188;2023-06-22T07:25:26;8.17;;;4.37;;
74689;SDS011;63221;51.860;-2.188;2023-06-22T07:30:28;6.97;;;4.20;;
74689;SDS011;63221;51.860;-2.188;2023-06-22T07:32:54;6.97;;;3.60;;
74689;SDS011;63221;51.860;-2.188;2023-06-22T07:35:20;6.40;;;3.53;;
74689;SDS011;63221;51.860;-2.188;2023-06-22T07:37:45;6.40;;;3.87;;
74689;SDS011;63221;51.860;-2.188;2023-06-22T07:40:11;8.50;;;3.30;;
74689;SDS011;63221;51.860;-2.188;2023-06-22T07:42:37;6.72;;;3.63;;
74689;SDS011;63221;51.860;-2.188;2023-06-22T07:45:03;6.73;;;3.93;;
74689;SDS011;63221;51.860;-2.188;2023-06-22T07:47:29;7.97;;;4.45;;
74689;SDS011;63221;51.860;-2.188;2023-06-22T07:49:55;7.73;;;3.50;;
74689;SDS011;63221;51.860;-2.188;2023-06-22T07:52:23;7.25;;;4.57;;
74689;SDS011;63221;51.860;-2.188;2023-06-22T07:54:50;7.57;;;3.97;;
74689;SDS011;63221;51.860;-2.188;2023-06-22T07:57:16;9.30;;;4.53;;
74689;SDS011;63221;51.860;-2.188;2023-06-22T07:59:41;8.60;;;3.83;;
74689;SDS011;63221;51.860;-2.188;2023-06-22T08:02:06;8.73;;;4.82;;
74689;SDS011;63221;51.860;-2.188;2023-06-22T08:04:33;11.40;;;4.00;;
74689;SDS011;63221;51.860;-2.188;2023-06-22T08:06:59;7.50;;;3.80;;
74689;SDS011;63221;51.860;-2.188;2023-06-22T08:09:27;7.30;;;4.03;;
74689;SDS011;63221;51.860;-2.188;2023-06-22T08:11:53;6.75;;;3.85;;
74689;SDS011;63221;51.860;-2.188;2023-06-22T08:14:20;9.07;;;4.40;;
74689;SDS011;63221;51.860;-2.188;2023-06-22T08:16:46;8.48;;;4.32;;
74689;SDS011;63221;51.860;-2.188;2023-06-22T08:19:11;10.97;;;5.50;;
74689;SDS011;63221;51.860;-2.188;2023-06-22T08:21:37;8.17;;;4.50;;
74689;SDS011;63221;51.860;-2.188;2023-06-22T08:24:02;7.10;;;4.32;;
74689;SDS011;63221;51.860;-2.188;2023-06-22T08:26:28;10.27;;;4.97;;
74689;SDS011;63221;51.860;-2.188;2023-06-22T08:28:54;7.50;;;4.70;;
74689;SDS011;63221;51.860;-2.188;2023-06-22T08:31:19;7.83;;;4.80;;
74689;SDS011;63221;51.860;-2.188;2023-06-22T08:33:45;7.53;;;4.10;;
74689;SDS011;63221;51.860;-2.188;2023-06-22T08:36:11;8.18;;;3.95;;
74689;SDS011;63221;51.860;-2.188;2023-06-22T08:38:38;8.30;;;4.50;;
74689;SDS011;63221;51.860;-2.188;2023-06-22T08:41:04;8.43;;;4.70;;
74689;SDS011;63221;51.860;-2.188;2023-06-22T08:43:29;7.63;;;3.73;;
74689;SDS011;63221;51.860;-2.188;2023-06-22T08:45:54;9.07;;;4.17;;
74689;SDS011;63221;51.860;-2.188;2023-06-22T08:48:20;7.17;;;4.20;;
74689;SDS011;63221;51.860;-2.188;2023-06-22T08:50:45;7.03;;;3.90;;
74689;SDS011;63221;51.860;-2.188;2023-06-22T08:53:11;8.50;;;4.03;;
74689;SDS011;63221;51.860;-2.188;2023-06-22T08:55:36;6.17;;;3.90;;
74689;SDS011;63221;51.860;-2.188;2023-06-22T08:58:02;8.20;;;4.20;;
74689;SDS011;63221;51.860;-2.188;2023-06-22T09:00:28;6.72;;;4.00;;
74689;SDS011;63221;51.860;-2.188;2023-06-22T09:02:57;10.30;;;4.10;;
74689;SDS011;63221;51.860;-2.188;2023-06-22T09:05:24;8.48;;;4.50;;
74689;SDS011;63221;51.860;-2.188;2023-06-22T09:07:51;7.57;;;3.60;;
74689;SDS011;63221;51.860;-2.188;2023-06-22T09:10:16;7.33;;;4.30;;
74689;SDS011;63221;51.860;-2.188;2023-06-22T09:12:42;5.90;;;4.20;;
74689;SDS011;63221;51.860;-2.188;2023-06-22T09:15:08;8.70;;;5.00;;
74689;SDS011;63221;51.860;-2.188;2023-06-22T09:17:33;7.60;;;4.10;;
74689;SDS011;63221;51.860;-2.188;2023-06-22T09:20:00;7.50;;;5.90;;
74689;SDS011;63221;51.860;-2.188;2023-06-22T09:22:25;7.80;;;4.67;;
74689;SDS011;63221;51.860;-2.188;2023-06-22T09:24:54;6.80;;;3.78;;
74689;SDS011;63221;51.860;-2.188;2023-06-22T09:27:20;7.07;;;3.83;;
74689;SDS011;63221;51.860;-2.188;2023-06-22T09:29:46;6.50;;;3.73;;
74689;SDS011;63221;51.860;-2.188;2023-06-22T09:32:11;5.63;;;3.73;;
74689;SDS011;63221;51.860;-2.188;2023-06-22T09:34:37;5.97;;;4.17;;
74689;SDS011;63221;51.860;-2.188;2023-06-22T09:37:02;5.70;;;4.20;;
74689;SDS011;63221;51.860;-2.188;2023-06-22T09:39:28;6.63;;;4.03;;
74689;SDS011;63221;51.860;-2.188;2023-06-22T09:41:53;6.97;;;4.37;;
74689;SDS011;63221;51.860;-2.188;2023-06-22T09:44:19;5.90;;;3.50;;
74689;SDS011;63221;51.860;-2.188;2023-06-22T09:46:44;8.40;;;4.43;;
74689;SDS011;63221;51.860;-2.188;2023-06-22T09:49:10;8.10;;;3.53;;
74689;SDS011;63221;51.860;-2.188;2023-06-22T09:51:35;5.37;;;3.17;;
74689;SDS011;63221;51.860;-2.188;2023-06-22T09:54:00;5.30;;;4.20;;
74689;SDS011;63221;51.860;-2.188;2023-06-22T09:56:26;5.78;;;2.95;;
74689;SDS011;63221;51.860;-2.188;2023-06-22T09:58:53;6.53;;;3.47;;
74689;SDS011;63221;51.860;-2.188;2023-06-22T10:01:18;7.40;;;3.60;;
74689;SDS011;63221;51.860;-2.188;2023-06-22T10:03:45;4.68;;;2.85;;
74689;SDS011;63221;51.860;-2.188;2023-06-22T10:06:11;5.43;;;2.70;;
74689;SDS011;63221;51.860;-2.188;2023-06-22T10:08:36;5.27;;;3.37;;
74689;SDS011;63221;51.860;-2.188;2023-06-22T10:11:03;7.67;;;3.97;;
74689;SDS011;63221;51.860;-2.188;2023-06-22T10:13:28;3.38;;;2.50;;
74689;SDS011;63221;51.860;-2.188;2023-06-22T10:15:54;5.20;;;2.93;;
74689;SDS011;63221;51.860;-2.188;2023-06-22T10:18:19;4.05;;;2.92;;
74689;SDS011;63221;51.860;-2.188;2023-06-22T10:20:47;4.50;;;3.10;;
74689;SDS011;63221;51.860;-2.188;2023-06-22T10:23:13;6.00;;;3.53;;
74689;SDS011;63221;51.860;-2.188;2023-06-22T10:25:38;8.30;;;3.50;;
74689;SDS011;63221;51.860;-2.188;2023-06-22T10:28:04;5.97;;;3.73;;
74689;SDS011;63221;51.860;-2.188;2023-06-22T10:30:29;5.17;;;3.30;;
74689;SDS011;63221;51.860;-2.188;2023-06-22T10:32:55;4.03;;;3.47;;
74689;SDS011;63221;51.860;-2.188;2023-06-22T10:35:20;5.15;;;3.30;;
74689;SDS011;63221;51.860;-2.188;2023-06-22T10:37:46;5.50;;;3.20;;
74689;SDS011;63221;51.860;-2.188;2023-06-22T10:40:15;4.30;;;2.90;;
74689;SDS011;63221;51.860;-2.188;2023-06-22T10:42:42;6.10;;;3.07;;
74689;SDS011;63221;51.860;-2.188;2023-06-22T10:45:07;5.53;;;3.38;;
74689;SDS011;63221;51.860;-2.188;2023-06-22T10:47:33;5.00;;;3.40;;
74689;SDS011;63221;51.860;-2.188;2023-06-22T10:49:59;6.10;;;3.30;;
74689;SDS011;63221;51.860;-2.188;2023-06-22T10:52:25;6.47;;;2.95;;
74689;SDS011;63221;51.860;-2.188;2023-06-22T10:54:50;7.17;;;3.30;;
74689;SDS011;63221;51.860;-2.188;2023-06-22T10:57:17;5.28;;;3.00;;
74689;SDS011;63221;51.860;-2.188;2023-06-22T10:59:42;4.07;;;3.10;;
74689;SDS011;63221;51.860;-2.188;2023-06-22T11:02:07;4.73;;;3.20;;
74689;SDS011;63221;51.860;-2.188;2023-06-22T11:04:33;5.60;;;3.23;;
74689;SDS011;63221;51.860;-2.188;2023-06-22T11:06:59;7.40;;;2.72;;
74689;SDS011;63221;51.860;-2.188;2023-06-22T11:09:24;4.97;;;2.70;;
74689;SDS011;63221;51.860;-2.188;2023-06-22T11:11:50;4.27;;;2.60;;
74689;SDS011;63221;51.860;-2.188;2023-06-22T11:14:18;3.50;;;2.85;;
74689;SDS011;63221;51.860;-2.188;2023-06-22T11:16:44;4.60;;;2.88;;
74689;SDS011;63221;51.860;-2.188;2023-06-22T11:19:11;3.25;;;2.28;;
74689;SDS011;63221;51.860;-2.188;2023-06-22T11:21:37;3.67;;;2.60;;
74689;SDS011;63221;51.860;-2.188;2023-06-22T11:24:03;4.07;;;2.97;;
74689;SDS011;63221;51.860;-2.188;2023-06-22T11:26:29;3.60;;;3.08;;
74689;SDS011;63221;51.860;-2.188;2023-06-22T11:28:56;4.30;;;2.93;;
74689;SDS011;63221;51.860;-2.188;2023-06-22T11:31:22;4.25;;;2.67;;
74689;SDS011;63221;51.860;-2.188;2023-06-22T11:33:47;4.60;;;2.57;;
74689;SDS011;63221;51.860;-2.188;2023-06-22T11:36:13;3.93;;;2.93;;
74689;SDS011;63221;51.860;-2.188;2023-06-22T11:38:39;4.75;;;3.17;;
74689;SDS011;63221;51.860;-2.188;2023-06-22T11:41:08;4.73;;;3.13;;
74689;SDS011;63221;51.860;-2.188;2023-06-22T11:43:34;5.60;;;2.88;;
74689;SDS011;63221;51.860;-2.188;2023-06-22T11:46:01;3.90;;;2.63;;
74689;SDS011;63221;51.860;-2.188;2023-06-22T11:48:28;5.32;;;2.58;;
74689;SDS011;63221;51.860;-2.188;2023-06-22T11:50:53;4.90;;;2.30;;
74689;SDS011;63221;51.860;-2.188;2023-06-22T11:53:20;3.95;;;2.58;;
74689;SDS011;63221;51.860;-2.188;2023-06-22T11:55:46;4.63;;;2.75;;
74689;SDS011;63221;51.860;-2.188;2023-06-22T11:58:12;4.10;;;2.83;;
74689;SDS011;63221;51.860;-2.188;2023-06-22T12:00:37;3.97;;;2.60;;
74689;SDS011;63221;51.860;-2.188;2023-06-22T12:03:02;4.57;;;2.40;;
74689;SDS011;63221;51.860;-2.188;2023-06-22T12:05:28;4.03;;;2.85;;
74689;SDS011;63221;51.860;-2.188;2023-06-22T12:07:53;4.83;;;3.20;;
74689;SDS011;63221;51.860;-2.188;2023-06-22T12:10:20;3.37;;;2.23;;
74689;SDS011;63221;51.860;-2.188;2023-06-22T12:12:46;4.33;;;3.20;;
74689;SDS011;63221;51.860;-2.188;2023-06-22T12:15:11;3.17;;;2.60;;
74689;SDS011;63221;51.860;-2.188;2023-06-22T12:17:37;5.43;;;3.20;;
74689;SDS011;63221;51.860;-2.188;2023-06-22T12:20:02;4.87;;;2.57;;
74689;SDS011;63221;51.860;-2.188;2023-06-22T12:22:31;3.30;;;2.58;;
74689;SDS011;63221;51.860;-2.188;2023-06-22T12:24:57;3.67;;;2.55;;
74689;SDS011;63221;51.860;-2.188;2023-06-22T12:27:23;3.60;;;2.60;;
74689;SDS011;63221;51.860;-2.188;2023-06-22T12:29:48;4.50;;;3.13;;
74689;SDS011;63221;51.860;-2.188;2023-06-22T12:32:13;4.13;;;3.25;;
74689;SDS011;63221;51.860;-2.188;2023-06-22T12:34:41;3.67;;;3.30;;
74689;SDS011;63221;51.860;-2.188;2023-06-22T12:37:07;3.30;;;2.60;;
74689;SDS011;63221;51.860;-2.188;2023-06-22T12:39:33;6.40;;;3.57;;
74689;SDS011;63221;51.860;-2.188;2023-06-22T12:41:58;2.85;;;2.30;;
74689;SDS011;63221;51.860;-2.188;2023-06-22T12:44:23;5.90;;;2.33;;
74689;SDS011;63221;51.860;-2.188;2023-06-22T12:46:49;5.60;;;2.33;;
74689;SDS011;63221;51.860;-2.188;2023-06-22T12:49:15;4.40;;;2.42;;
74689;SDS011;63221;51.860;-2.188;2023-06-22T12:51:40;4.23;;;1.90;;
74689;SDS011;63221;51.860;-2.188;2023-06-22T12:54:07;3.47;;;2.30;;
74689;SDS011;63221;51.860;-2.188;2023-06-22T12:56:32;4.03;;;2.77;;
74689;SDS011;63221;51.860;-2.188;2023-06-22T12:58:58;3.37;;;2.33;;
74689;SDS011;63221;51.860;-2.188;2023-06-22T13:01:26;3.97;;;2.42;;
74689;SDS011;63221;51.860;-2.188;2023-06-22T13:03:52;3.08;;;2.60;;
74689;SDS011;63221;51.860;-2.188;2023-06-22T13:06:17;4.27;;;3.13;;
74689;SDS011;63221;51.860;-2.188;2023-06-22T13:08:43;2.97;;;1.87;;
74689;SDS011;63221;51.860;-2.188;2023-06-22T13:11:08;4.03;;;2.78;;
74689;SDS011;63221;51.860;-2.188;2023-06-22T13:13:34;4.03;;;2.63;;
74689;SDS011;63221;51.860;-2.188;2023-06-22T13:15:59;4.53;;;2.50;;
74689;SDS011;63221;51.860;-2.188;2023-06-22T13:18:25;3.17;;;2.03;;
74689;SDS011;63221;51.860;-2.188;2023-06-22T13:20:50;4.83;;;2.20;;
74689;SDS011;63221;51.860;-2.188;2023-06-22T13:23:15;4.23;;;3.00;;
74689;SDS011;63221;51.860;-2.188;2023-06-22T13:25:41;4.17;;;2.17;;
74689;SDS011;63221;51.860;-2.188;2023-06-22T13:28:06;4.37;;;2.60;;
74689;SDS011;63221;51.860;-2.188;2023-06-22T13:30:32;2.67;;;2.28;;
74689;SDS011;63221;51.860;-2.188;2023-06-22T13:32:57;4.37;;;2.77;;
74689;SDS011;63221;51.860;-2.188;2023-06-22T13:35:23;3.50;;;2.50;;
74689;SDS011;63221;51.860;-2.188;2023-06-22T13:37:48;4.35;;;2.50;;
74689;SDS011;63221;51.860;-2.188;2023-06-22T13:40:14;2.83;;;2.37;;
74689;SDS011;63221;51.860;-2.188;2023-06-22T13:42:39;4.50;;;3.20;;
74689;SDS011;63221;51.860;-2.188;2023-06-22T13:45:05;3.45;;;2.65;;
74689;SDS011;63221;51.860;-2.188;2023-06-22T13:47:31;3.38;;;2.80;;
74689;SDS011;63221;51.860;-2.188;2023-06-22T13:49:57;3.00;;;2.60;;
74689;SDS011;63221;51.860;-2.188;2023-06-22T13:52:23;3.63;;;2.33;;
74689;SDS011;63221;51.860;-2.188;2023-06-22T13:54:48;3.90;;;2.70;;
74689;SDS011;63221;51.860;-2.188;2023-06-22T13:57:14;2.57;;;2.10;;
74689;SDS011;63221;51.860;-2.188;2023-06-22T13:59:39;3.97;;;2.73;;
74689;SDS011;63221;51.860;-2.188;2023-06-22T14:02:04;5.03;;;2.80;;
74689;SDS011;63221;51.860;-2.188;2023-06-22T14:04:30;3.67;;;2.20;;
74689;SDS011;63221;51.860;-2.188;2023-06-22T14:06:56;3.70;;;2.00;;
74689;SDS011;63221;51.860;-2.188;2023-06-22T14:09:21;3.10;;;2.30;;
74689;SDS011;63221;51.860;-2.188;2023-06-22T14:11:46;4.37;;;2.67;;
74689;SDS011;63221;51.860;-2.188;2023-06-22T14:14:12;3.57;;;2.57;;
74689;SDS011;63221;51.860;-2.188;2023-06-22T14:16:37;3.27;;;2.60;;
74689;SDS011;63221;51.860;-2.188;2023-06-22T14:19:03;4.57;;;3.40;;
74689;SDS011;63221;51.860;-2.188;2023-06-22T14:21:28;4.20;;;3.07;;
74689;SDS011;63221;51.860;-2.188;2023-06-22T14:23:53;4.17;;;2.67;;
74689;SDS011;63221;51.860;-2.188;2023-06-22T14:26:19;3.70;;;2.65;;
74689;SDS011;63221;51.860;-2.188;2023-06-22T14:28:45;4.27;;;2.60;;
74689;SDS011;63221;51.860;-2.188;2023-06-22T14:31:18;3.95;;;2.85;;
74689;SDS011;63221;51.860;-2.188;2023-06-22T14:33:45;3.40;;;2.92;;
74689;SDS011;63221;51.860;-2.188;2023-06-22T14:36:12;4.80;;;2.80;;
74689;SDS011;63221;51.860;-2.188;2023-06-22T14:38:38;3.08;;;1.90;;